createdAt,value
2019-06-08T00:00:22.558Z,15.13
2019-06-08T00:01:22.792Z,15.23
2019-06-08T00:02:22.935Z,15.16
2019-06-08T00:03:22.714Z,15.09
2019-06-08T00:04:22.877Z,14.96
2019-06-08T00:05:23.143Z,14.91
2019-06-08T00:06:22.995Z,14.95
2019-06-08T00:07:23.118Z,14.96
2019-06-08T00:08:23.024Z,14.77
2019-06-08T00:09:22.581Z,14.72
2019-06-08T00:10:25.246Z,14.62
2019-06-08T00:11:23.256Z,14.62
2019-06-08T00:12:22.995Z,14.62
2019-06-08T00:13:21.797Z,14.60
2019-06-08T00:14:21.783Z,14.61
2019-06-08T00:15:22.333Z,14.58
2019-06-08T00:16:21.765Z,14.70
2019-06-08T00:17:35.841Z,14.64
2019-06-08T00:18:21.738Z,14.64
2019-06-08T00:19:21.737Z,14.72
2019-06-08T00:20:21.932Z,14.72
2019-06-08T00:21:21.791Z,14.73
2019-06-08T00:22:21.993Z,14.77
2019-06-08T00:23:22.003Z,14.88
2019-06-08T00:24:21.948Z,14.91
2019-06-08T00:25:22.546Z,14.92
2019-06-08T00:26:22.134Z,14.96
2019-06-08T00:27:22.972Z,14.96
2019-06-08T00:28:22.488Z,14.95
2019-06-08T00:29:22.432Z,14.99
2019-06-08T00:30:21.619Z,15.03
2019-06-08T00:31:21.713Z,15.02
2019-06-08T00:32:22.630Z,14.99
2019-06-08T00:33:22.641Z,15.07
2019-06-08T00:34:22.696Z,15.06
2019-06-08T00:35:22.722Z,15.07
2019-06-08T00:36:22.881Z,15.01
2019-06-08T00:37:22.848Z,15.10
2019-06-08T00:38:21.519Z,15.02
2019-06-08T00:39:21.507Z,15.06
2019-06-08T00:40:21.502Z,15.10
2019-06-08T00:41:22.048Z,15.09
2019-06-08T00:42:21.503Z,15.10
2019-06-08T00:43:21.466Z,15.03
2019-06-08T00:44:21.459Z,15.02
2019-06-08T00:45:21.732Z,14.89
2019-06-08T00:46:21.476Z,14.81
2019-06-08T00:47:22.582Z,14.80
2019-06-08T00:48:22.577Z,14.78
2019-06-08T00:49:22.616Z,14.80
2019-06-08T00:50:21.388Z,14.81
2019-06-08T00:51:21.389Z,14.84
2019-06-08T00:52:21.368Z,14.91
2019-06-08T00:53:21.352Z,14.96
2019-06-08T00:54:21.589Z,14.94
2019-06-08T00:55:21.804Z,14.98
2019-06-08T00:56:21.587Z,14.95
2019-06-08T00:57:21.781Z,14.98
2019-06-08T00:58:21.995Z,15.02
2019-06-08T00:59:21.909Z,15.06
2019-06-08T01:00:22.582Z,15.01
2019-06-08T01:01:24.397Z,14.98
2019-06-08T01:02:22.458Z,14.99
2019-06-08T01:03:21.712Z,15.03
2019-06-08T01:04:21.239Z,15.09
2019-06-08T01:05:21.889Z,14.99
2019-06-08T01:06:21.213Z,15.06
2019-06-08T01:07:22.050Z,15.06
2019-06-08T01:08:22.578Z,15.03
2019-06-08T01:09:22.152Z,15.09
2019-06-08T01:10:21.333Z,15.03
2019-06-08T01:11:22.446Z,14.89
2019-06-08T01:12:22.392Z,14.92
2019-06-08T01:13:21.135Z,14.89
2019-06-08T01:14:21.125Z,14.81
2019-06-08T01:15:26.891Z,14.73
2019-06-08T01:16:21.101Z,14.80
2019-06-08T01:17:21.139Z,14.75
2019-06-08T01:18:22.593Z,14.78
2019-06-08T01:19:21.155Z,14.77
2019-06-08T01:20:21.757Z,14.73
2019-06-08T01:21:21.318Z,14.72
2019-06-08T01:22:21.588Z,14.75
2019-06-08T01:23:21.575Z,14.61
2019-06-08T01:24:21.612Z,14.64
2019-06-08T01:25:21.928Z,14.61
2019-06-08T01:26:22.282Z,14.62
2019-06-08T01:27:22.030Z,14.69
2019-06-08T01:28:22.142Z,14.61
2019-06-08T01:29:22.258Z,14.68
2019-06-08T01:30:22.037Z,14.62
2019-06-08T01:31:22.307Z,14.61
2019-06-08T01:32:22.201Z,14.57
2019-06-08T01:33:20.907Z,14.61
2019-06-08T01:34:20.900Z,14.58
2019-06-08T01:35:20.947Z,14.61
2019-06-08T01:36:20.877Z,14.55
2019-06-08T01:37:21.039Z,14.64
2019-06-08T01:38:21.092Z,14.61
2019-06-08T01:39:21.150Z,14.64
2019-06-08T01:40:21.297Z,14.65
2019-06-08T01:41:21.344Z,14.65
2019-06-08T01:42:21.420Z,14.70
2019-06-08T01:43:21.768Z,14.62
2019-06-08T01:44:21.536Z,14.57
2019-06-08T01:45:21.663Z,14.51
2019-06-08T01:46:21.860Z,14.60
2019-06-08T01:47:22.036Z,14.51
2019-06-08T01:48:22.241Z,14.46
2019-06-08T01:49:21.975Z,14.55
2019-06-08T01:50:20.720Z,14.43
2019-06-08T01:51:20.707Z,14.42
2019-06-08T01:52:20.694Z,14.42
2019-06-08T01:53:20.682Z,14.35
2019-06-08T01:54:20.678Z,14.50
2019-06-08T01:55:20.665Z,14.35
2019-06-08T01:56:20.645Z,14.40
2019-06-08T01:57:20.639Z,14.45
2019-06-08T01:58:20.626Z,14.45
2019-06-08T01:59:20.615Z,14.43
2019-06-08T02:00:29.973Z,14.51
2019-06-08T02:01:20.596Z,14.47
2019-06-08T02:02:20.576Z,14.58
2019-06-08T02:03:20.579Z,14.50
2019-06-08T02:04:20.560Z,14.37
2019-06-08T02:05:20.567Z,14.43
2019-06-08T02:06:20.539Z,14.45
2019-06-08T02:07:20.525Z,14.29
2019-06-08T02:08:20.513Z,14.28
2019-06-08T02:09:20.499Z,14.24
2019-06-08T02:10:20.488Z,14.17
2019-06-08T02:11:20.478Z,14.07
2019-06-08T02:12:20.470Z,14.03
2019-06-08T02:13:20.455Z,14.07
2019-06-08T02:14:20.444Z,14.02
2019-06-08T02:15:20.432Z,14.02
2019-06-08T02:16:20.422Z,14.10
2019-06-08T02:17:20.405Z,14.04
2019-06-08T02:18:35.356Z,13.97
2019-06-08T02:19:20.382Z,14.00
2019-06-08T02:20:20.372Z,14.02
2019-06-08T02:21:20.360Z,14.04
2019-06-08T02:22:20.352Z,14.12
2019-06-08T02:23:20.347Z,14.06
2019-06-08T02:24:20.332Z,14.21
2019-06-08T02:25:20.323Z,14.25
2019-06-08T02:26:20.308Z,14.22
2019-06-08T02:27:20.298Z,14.22
2019-06-08T02:28:20.277Z,14.21
2019-06-08T02:29:20.271Z,14.21
2019-06-08T02:30:20.259Z,14.36
2019-06-08T02:31:20.262Z,14.22
2019-06-08T02:32:20.236Z,14.24
2019-06-08T02:33:20.226Z,14.29
2019-06-08T02:34:20.215Z,14.36
2019-06-08T02:35:20.200Z,14.45
2019-06-08T02:36:20.196Z,14.39
2019-06-08T02:37:20.179Z,14.43
2019-06-08T02:38:20.168Z,14.52
2019-06-08T02:39:20.153Z,14.51
2019-06-08T02:40:20.143Z,14.58
2019-06-08T02:41:20.131Z,14.58
2019-06-08T02:42:20.125Z,14.58
2019-06-08T02:43:20.108Z,14.57
2019-06-08T02:44:20.094Z,14.57
2019-06-08T02:45:20.091Z,14.57
2019-06-08T02:46:20.074Z,14.60
2019-06-08T02:47:20.068Z,14.68
2019-06-08T02:48:20.055Z,14.75
2019-06-08T02:49:20.035Z,14.64
2019-06-08T02:50:20.027Z,14.62
2019-06-08T02:51:20.023Z,14.64
2019-06-08T02:52:20.103Z,14.72
2019-06-08T02:53:19.998Z,14.65
2019-06-08T02:54:19.979Z,14.62
2019-06-08T02:55:19.968Z,14.72
2019-06-08T02:56:19.963Z,14.64
2019-06-08T02:57:19.977Z,14.75
2019-06-08T02:58:19.945Z,14.75
2019-06-08T02:59:19.924Z,14.73
2019-06-08T03:00:19.913Z,14.73
2019-06-08T03:01:19.902Z,14.69
2019-06-08T03:02:19.907Z,14.77
2019-06-08T03:03:19.886Z,14.77
2019-06-08T03:04:19.866Z,14.80
2019-06-08T03:05:19.856Z,14.83
2019-06-08T03:06:19.844Z,14.70
2019-06-08T03:07:19.836Z,14.75
2019-06-08T03:08:19.819Z,14.81
2019-06-08T03:09:19.819Z,14.80
2019-06-08T03:10:19.812Z,14.69
2019-06-08T03:11:19.789Z,14.64
2019-06-08T03:12:19.785Z,14.65
2019-06-08T03:13:19.763Z,14.64
2019-06-08T03:14:19.765Z,14.62
2019-06-08T03:15:19.746Z,14.61
2019-06-08T03:16:19.731Z,14.54
2019-06-08T03:17:19.719Z,14.51
2019-06-08T03:18:19.708Z,14.47
2019-06-08T03:19:22.409Z,14.40
2019-06-08T03:20:19.694Z,14.43
2019-06-08T03:21:19.674Z,14.43
2019-06-08T03:22:19.670Z,14.37
2019-06-08T03:23:19.647Z,14.37
2019-06-08T03:24:19.637Z,14.25
2019-06-08T03:25:19.624Z,14.39
2019-06-08T03:26:19.623Z,14.37
2019-06-08T03:27:19.604Z,14.24
2019-06-08T03:28:19.596Z,14.28
2019-06-08T03:29:19.585Z,14.28
2019-06-08T03:30:19.974Z,14.25
2019-06-08T03:31:19.570Z,14.29
2019-06-08T03:32:19.592Z,14.15
2019-06-08T03:33:19.539Z,14.22
2019-06-08T03:34:19.526Z,14.04
2019-06-08T03:35:19.516Z,14.09
2019-06-08T03:36:19.511Z,14.07
2019-06-08T03:37:19.496Z,14.12
2019-06-08T03:38:19.480Z,14.04
2019-06-08T03:39:19.468Z,13.97
2019-06-08T03:40:19.464Z,14.00
2019-06-08T03:41:19.449Z,14.06
2019-06-08T03:42:19.431Z,13.99
2019-06-08T03:43:19.431Z,14.06
2019-06-08T03:44:19.406Z,14.17
2019-06-08T03:45:19.396Z,14.18
2019-06-08T03:46:19.385Z,14.14
2019-06-08T03:47:19.375Z,14.20
2019-06-08T03:48:19.365Z,14.18
2019-06-08T03:49:19.357Z,14.17
2019-06-08T03:50:19.343Z,14.20
2019-06-08T03:51:19.334Z,14.03
2019-06-08T03:52:19.318Z,14.06
2019-06-08T03:53:19.314Z,14.07
2019-06-08T03:54:19.299Z,14.06
2019-06-08T03:55:19.288Z,14.03
2019-06-08T03:56:19.273Z,13.91
2019-06-08T03:57:19.261Z,13.95
2019-06-08T03:58:19.245Z,13.79
2019-06-08T03:59:19.233Z,13.71
2019-06-08T04:00:19.226Z,13.64
2019-06-08T04:01:19.214Z,13.67
2019-06-08T04:02:19.202Z,13.66
2019-06-08T04:03:19.188Z,13.67
2019-06-08T04:04:19.177Z,13.77
2019-06-08T04:05:19.164Z,13.60
2019-06-08T04:06:19.158Z,13.64
2019-06-08T04:07:19.144Z,13.64
2019-06-08T04:08:19.126Z,13.69
2019-06-08T04:09:19.112Z,13.63
2019-06-08T04:10:19.106Z,13.55
2019-06-08T04:11:19.096Z,13.55
2019-06-08T04:12:19.090Z,13.49
2019-06-08T04:13:19.069Z,13.48
2019-06-08T04:14:19.065Z,13.41
2019-06-08T04:15:19.048Z,13.45
2019-06-08T04:16:19.053Z,13.51
2019-06-08T04:17:19.022Z,13.55
2019-06-08T04:18:19.014Z,13.54
2019-06-08T04:19:19.001Z,13.55
2019-06-08T04:20:18.983Z,13.59
2019-06-08T04:21:18.982Z,13.57
2019-06-08T04:22:18.964Z,13.64
2019-06-08T04:23:18.948Z,13.64
2019-06-08T04:24:18.938Z,13.63
2019-06-08T04:25:18.927Z,13.54
2019-06-08T04:26:18.921Z,13.55
2019-06-08T04:27:18.900Z,13.52
2019-06-08T04:28:18.889Z,13.62
2019-06-08T04:29:18.884Z,13.49
2019-06-08T04:30:18.865Z,13.48
2019-06-08T04:31:18.855Z,13.42
2019-06-08T04:32:18.844Z,13.51
2019-06-08T04:33:18.831Z,13.48
2019-06-08T04:34:18.823Z,13.48
2019-06-08T04:35:18.814Z,13.46
2019-06-08T04:36:18.791Z,13.51
2019-06-08T04:37:18.781Z,13.52
2019-06-08T04:38:18.772Z,13.62
2019-06-08T04:39:18.760Z,13.66
2019-06-08T04:40:18.747Z,13.64
2019-06-08T04:41:18.741Z,13.59
2019-06-08T04:42:18.723Z,13.77
2019-06-08T04:43:18.712Z,13.69
2019-06-08T04:44:18.698Z,13.66
2019-06-08T04:45:18.689Z,13.62
2019-06-08T04:46:18.674Z,13.62
2019-06-08T04:47:18.663Z,13.69
2019-06-08T04:48:18.652Z,13.62
2019-06-08T04:49:18.713Z,13.71
2019-06-08T04:50:23.246Z,13.71
2019-06-08T04:51:18.620Z,13.66
2019-06-08T04:52:18.605Z,13.51
2019-06-08T04:53:18.615Z,13.55
2019-06-08T04:54:18.577Z,13.51
2019-06-08T04:55:18.570Z,13.42
2019-06-08T04:56:18.556Z,13.44
2019-06-08T04:57:18.545Z,13.42
2019-06-08T04:58:18.535Z,13.42
2019-06-08T04:59:18.518Z,13.26
2019-06-08T05:00:18.511Z,13.28
2019-06-08T05:01:18.495Z,13.25
2019-06-08T05:02:18.483Z,13.26
2019-06-08T05:03:18.470Z,13.26
2019-06-08T05:04:18.461Z,13.23
2019-06-08T05:05:18.445Z,13.29
2019-06-08T05:06:18.439Z,13.15
2019-06-08T05:07:18.424Z,13.15
2019-06-08T05:08:18.415Z,13.17
2019-06-08T05:09:18.392Z,13.07
2019-06-08T05:10:18.389Z,12.95
2019-06-08T05:11:18.373Z,13.08
2019-06-08T05:12:18.364Z,13.08
2019-06-08T05:13:18.358Z,13.08
2019-06-08T05:14:18.335Z,13.07
2019-06-08T05:15:18.319Z,13.12
2019-06-08T05:16:18.367Z,13.08
2019-06-08T05:17:18.299Z,13.20
2019-06-08T05:18:18.283Z,13.20
2019-06-08T05:19:18.276Z,13.20
2019-06-08T05:20:18.276Z,13.04
2019-06-08T05:21:18.250Z,13.01
2019-06-08T05:22:18.239Z,13.08
2019-06-08T05:23:18.227Z,13.10
2019-06-08T05:24:18.216Z,13.11
2019-06-08T05:25:18.201Z,13.19
2019-06-08T05:26:18.185Z,13.12
2019-06-08T05:27:18.169Z,13.10
2019-06-08T05:28:18.163Z,13.12
2019-06-08T05:29:18.149Z,13.15
2019-06-08T05:30:18.137Z,13.12
2019-06-08T05:31:18.134Z,13.19
2019-06-08T05:32:18.120Z,13.05
2019-06-08T05:33:18.102Z,13.08
2019-06-08T05:34:18.090Z,13.03
2019-06-08T05:35:18.076Z,13.05
2019-06-08T05:36:18.069Z,13.08
2019-06-08T05:37:18.052Z,13.17
2019-06-08T05:38:18.046Z,13.25
2019-06-08T05:39:18.037Z,13.15
2019-06-08T05:40:18.018Z,13.12
2019-06-08T05:41:18.008Z,13.14
2019-06-08T05:42:17.991Z,13.26
2019-06-08T05:43:17.989Z,13.25
2019-06-08T05:44:17.965Z,13.23
2019-06-08T05:45:17.960Z,13.19
2019-06-08T05:46:17.979Z,13.17
2019-06-08T05:47:17.933Z,13.14
2019-06-08T05:48:17.924Z,13.17
2019-06-08T05:49:17.906Z,13.25
2019-06-08T05:50:17.904Z,13.15
2019-06-08T05:51:17.880Z,13.19
2019-06-08T05:52:17.878Z,13.15
2019-06-08T05:53:17.864Z,13.08
2019-06-08T05:54:17.844Z,13.05
2019-06-08T05:55:17.834Z,13.03
2019-06-08T05:56:17.817Z,13.05
2019-06-08T05:57:17.803Z,13.00
2019-06-08T05:58:17.796Z,13.05
2019-06-08T05:59:17.786Z,13.08
2019-06-08T06:00:17.786Z,13.07
2019-06-08T06:01:17.765Z,13.11
2019-06-08T06:02:17.747Z,13.11
2019-06-08T06:03:17.740Z,13.28
2019-06-08T06:04:17.724Z,13.30
2019-06-08T06:05:17.718Z,13.32
2019-06-08T06:06:17.700Z,13.42
2019-06-08T06:07:17.726Z,13.46
2019-06-08T06:08:19.189Z,13.54
2019-06-08T06:09:17.660Z,13.55
2019-06-08T06:10:17.649Z,13.64
2019-06-08T06:11:17.636Z,13.60
2019-06-08T06:12:17.628Z,13.62
2019-06-08T06:13:17.624Z,13.69
2019-06-08T06:14:17.595Z,13.66
2019-06-08T06:15:17.581Z,13.54
2019-06-08T06:16:17.579Z,13.54
2019-06-08T06:17:17.564Z,13.59
2019-06-08T06:18:17.552Z,13.59
2019-06-08T06:19:17.543Z,13.57
2019-06-08T06:20:17.527Z,13.55
2019-06-08T06:21:17.517Z,13.54
2019-06-08T06:22:17.498Z,13.57
2019-06-08T06:23:17.494Z,13.41
2019-06-08T06:24:17.487Z,13.48
2019-06-08T06:25:17.473Z,13.41
2019-06-08T06:26:17.456Z,13.46
2019-06-08T06:27:17.442Z,13.54
2019-06-08T06:28:17.436Z,13.46
2019-06-08T06:29:17.421Z,13.44
2019-06-08T06:30:17.404Z,13.48
2019-06-08T06:31:17.393Z,13.48
2019-06-08T06:32:17.394Z,13.44
2019-06-08T06:33:17.368Z,13.38
2019-06-08T06:34:17.367Z,13.30
2019-06-08T06:35:17.345Z,13.29
2019-06-08T06:36:17.379Z,13.33
2019-06-08T06:37:17.325Z,13.29
2019-06-08T06:38:17.313Z,13.23
2019-06-08T06:39:17.297Z,13.26
2019-06-08T06:40:17.283Z,13.26
2019-06-08T06:41:17.273Z,13.30
2019-06-08T06:42:17.265Z,13.28
2019-06-08T06:43:17.252Z,13.28
2019-06-08T06:44:17.234Z,13.29
2019-06-08T06:45:17.220Z,13.28
2019-06-08T06:46:17.216Z,13.23
2019-06-08T06:47:17.205Z,13.23
2019-06-08T06:48:17.191Z,13.25
2019-06-08T06:49:17.177Z,13.28
2019-06-08T06:50:17.161Z,13.36
2019-06-08T06:51:25.666Z,13.38
2019-06-08T06:52:17.146Z,13.44
2019-06-08T06:53:17.130Z,13.41
2019-06-08T06:54:17.114Z,13.45
2019-06-08T06:55:17.104Z,13.42
2019-06-08T06:56:17.092Z,13.45
2019-06-08T06:57:17.077Z,13.49
2019-06-08T06:58:17.073Z,13.55
2019-06-08T06:59:17.063Z,13.45
2019-06-08T07:00:17.043Z,13.46
2019-06-08T07:01:17.047Z,13.44
2019-06-08T07:02:17.023Z,13.48
2019-06-08T07:03:17.007Z,13.44
2019-06-08T07:04:16.995Z,13.42
2019-06-08T07:05:16.985Z,13.51
2019-06-08T07:06:16.967Z,13.45
2019-06-08T07:07:16.960Z,13.57
2019-06-08T07:08:16.947Z,13.55
2019-06-08T07:09:16.934Z,13.54
2019-06-08T07:10:16.918Z,13.54
2019-06-08T07:11:16.914Z,13.60
2019-06-08T07:12:16.902Z,13.60
2019-06-08T07:13:16.890Z,13.66
2019-06-08T07:14:16.880Z,13.60
2019-06-08T07:15:16.865Z,13.63
2019-06-08T07:16:18.874Z,13.70
2019-06-08T07:17:16.845Z,13.63
2019-06-08T07:18:16.827Z,13.77
2019-06-08T07:19:16.814Z,13.75
2019-06-08T07:20:16.800Z,13.79
2019-06-08T07:21:16.792Z,13.82
2019-06-08T07:22:16.780Z,13.81
2019-06-08T07:23:16.767Z,13.79
2019-06-08T07:24:16.768Z,13.91
2019-06-08T07:25:16.745Z,13.97
2019-06-08T07:26:16.741Z,13.96
2019-06-08T07:27:16.723Z,14.02
2019-06-08T07:28:16.715Z,14.02
2019-06-08T07:29:16.695Z,14.09
2019-06-08T07:30:16.709Z,14.18
2019-06-08T07:31:16.674Z,14.27
2019-06-08T07:32:16.660Z,14.21
2019-06-08T07:33:16.644Z,14.25
2019-06-08T07:34:16.638Z,14.20
2019-06-08T07:35:16.628Z,14.36
2019-06-08T07:36:16.616Z,14.32
2019-06-08T07:37:16.604Z,14.21
2019-06-08T07:38:16.588Z,14.24
2019-06-08T07:39:16.575Z,14.17
2019-06-08T07:40:16.569Z,14.21
2019-06-08T07:41:16.553Z,14.09
2019-06-08T07:42:16.539Z,14.17
2019-06-08T07:43:16.531Z,14.22
2019-06-08T07:44:16.519Z,14.22
2019-06-08T07:45:16.506Z,14.14
2019-06-08T07:46:16.493Z,14.20
2019-06-08T07:47:16.487Z,14.14
2019-06-08T07:48:16.469Z,14.12
2019-06-08T07:49:16.464Z,14.07
2019-06-08T07:50:16.450Z,14.07
2019-06-08T07:51:16.437Z,14.14
2019-06-08T07:52:16.425Z,14.17
2019-06-08T07:53:16.413Z,14.18
2019-06-08T07:54:16.419Z,14.22
2019-06-08T07:55:16.387Z,14.28
2019-06-08T07:56:16.379Z,14.27
2019-06-08T07:57:16.370Z,14.27
2019-06-08T07:58:16.356Z,14.40
2019-06-08T07:59:16.344Z,14.37
2019-06-08T08:00:16.330Z,14.39
2019-06-08T08:01:16.323Z,14.47
2019-06-08T08:02:16.308Z,14.43
2019-06-08T08:03:16.293Z,14.29
2019-06-08T08:04:16.283Z,14.46
2019-06-08T08:05:16.270Z,14.45
2019-06-08T08:06:16.263Z,14.51
2019-06-08T08:07:16.249Z,14.47
2019-06-08T08:08:16.253Z,14.60
2019-06-08T08:09:16.228Z,14.51
2019-06-08T08:10:16.226Z,14.50
2019-06-08T08:11:16.208Z,14.57
2019-06-08T08:12:16.201Z,14.57
2019-06-08T08:13:16.178Z,14.47
2019-06-08T08:14:16.166Z,14.61
2019-06-08T08:15:16.167Z,14.62
2019-06-08T08:16:16.148Z,14.57
2019-06-08T08:17:16.133Z,14.62
2019-06-08T08:18:16.131Z,14.58
2019-06-08T08:19:16.111Z,14.57
2019-06-08T08:20:16.107Z,14.68
2019-06-08T08:21:23.164Z,14.58
2019-06-08T08:22:22.966Z,14.70
2019-06-08T08:23:17.354Z,14.62
2019-06-08T08:24:17.377Z,14.70
2019-06-08T08:25:18.205Z,14.64
2019-06-08T08:26:16.027Z,14.64
2019-06-08T08:27:17.908Z,14.64
2019-06-08T08:28:17.723Z,14.64
2019-06-08T08:29:17.686Z,14.65
2019-06-08T08:30:17.335Z,14.65
2019-06-08T08:31:18.397Z,14.72
2019-06-08T08:32:18.652Z,14.69
2019-06-08T08:33:18.195Z,14.70
2019-06-08T08:34:18.149Z,14.70
2019-06-08T08:35:18.418Z,14.57
2019-06-08T08:36:18.050Z,14.64
2019-06-08T08:37:17.583Z,14.60
2019-06-08T08:38:17.714Z,14.60
2019-06-08T08:39:17.610Z,14.61
2019-06-08T08:40:17.798Z,14.61
2019-06-08T08:41:18.172Z,14.51
2019-06-08T08:42:17.863Z,14.61
2019-06-08T08:43:17.856Z,14.50
2019-06-08T08:44:17.597Z,14.57
2019-06-08T08:45:18.163Z,14.50
2019-06-08T08:46:17.293Z,14.39
2019-06-08T08:47:15.785Z,14.43
2019-06-08T08:48:25.272Z,14.42
2019-06-08T08:49:18.073Z,14.43
2019-06-08T08:50:18.230Z,14.45
2019-06-08T08:51:17.970Z,14.54
2019-06-08T08:52:17.465Z,14.62
2019-06-08T08:53:17.898Z,14.65
2019-06-08T08:54:18.144Z,14.62
2019-06-08T08:55:20.298Z,14.62
2019-06-08T08:56:17.997Z,14.58
2019-06-08T08:57:17.974Z,14.62
2019-06-08T08:58:18.380Z,14.54
2019-06-08T08:59:17.617Z,14.57
2019-06-08T09:00:17.952Z,14.60
2019-06-08T09:01:20.180Z,14.58
2019-06-08T09:02:20.556Z,14.58
2019-06-08T09:03:27.927Z,14.55
2019-06-08T09:04:18.367Z,14.55
2019-06-08T09:05:17.983Z,14.54
2019-06-08T09:06:17.999Z,14.61
2019-06-08T09:07:18.208Z,14.61
2019-06-08T09:08:18.091Z,14.60
2019-06-08T09:09:18.816Z,14.65
2019-06-08T09:10:18.134Z,14.64
2019-06-08T09:11:17.522Z,14.65
2019-06-08T09:12:18.046Z,14.72
2019-06-08T09:13:18.056Z,14.75
2019-06-08T09:14:18.160Z,14.78
2019-06-08T09:15:15.462Z,14.91
2019-06-08T09:16:17.508Z,14.89
2019-06-08T09:17:17.908Z,14.99
2019-06-08T09:18:15.424Z,14.96
2019-06-08T09:19:18.369Z,15.03
2019-06-08T09:20:16.560Z,15.01
2019-06-08T09:21:18.385Z,15.03
2019-06-08T09:22:15.382Z,15.01
2019-06-08T09:23:19.078Z,15.03
2019-06-08T09:24:15.359Z,15.03
2019-06-08T09:25:15.349Z,15.11
2019-06-08T09:26:17.479Z,15.10
2019-06-08T09:27:17.755Z,15.16
2019-06-08T09:28:15.315Z,15.16
2019-06-08T09:29:15.299Z,15.14
2019-06-08T09:30:18.057Z,15.19
2019-06-08T09:31:15.282Z,15.17
2019-06-08T09:32:15.274Z,15.17
2019-06-08T09:33:15.256Z,15.27
2019-06-08T09:34:15.727Z,15.28
2019-06-08T09:35:15.236Z,15.25
2019-06-08T09:36:17.561Z,15.31
2019-06-08T09:37:15.216Z,15.39
2019-06-08T09:38:15.205Z,15.43
2019-06-08T09:39:15.185Z,15.44
2019-06-08T09:40:15.179Z,15.64
2019-06-08T09:41:15.165Z,15.57
2019-06-08T09:42:15.155Z,15.59
2019-06-08T09:43:15.145Z,15.54
2019-06-08T09:44:18.286Z,15.67
2019-06-08T09:45:15.133Z,15.62
2019-06-08T09:46:17.710Z,15.68
2019-06-08T09:47:15.104Z,15.54
2019-06-08T09:48:18.044Z,15.67
2019-06-08T09:49:15.076Z,15.62
2019-06-08T09:50:15.065Z,15.82
2019-06-08T09:51:15.056Z,15.78
2019-06-08T09:52:15.046Z,15.80
2019-06-08T09:53:26.689Z,15.80
2019-06-08T09:54:17.948Z,15.94
2019-06-08T09:55:15.009Z,15.93
2019-06-08T09:56:14.997Z,15.89
2019-06-08T09:57:14.987Z,16.01
2019-06-08T09:58:14.997Z,15.96
2019-06-08T09:59:15.648Z,16.00
2019-06-08T10:00:18.631Z,15.92
2019-06-08T10:01:14.950Z,15.97
2019-06-08T10:02:14.930Z,16.08
2019-06-08T10:03:14.923Z,16.07
2019-06-08T10:04:14.919Z,16.07
2019-06-08T10:05:14.906Z,16.11
2019-06-08T10:06:14.898Z,16.07
2019-06-08T10:07:14.879Z,16.24
2019-06-08T10:08:14.892Z,16.27
2019-06-08T10:09:14.860Z,16.34
2019-06-08T10:10:14.858Z,16.31
2019-06-08T10:11:14.846Z,16.43
2019-06-08T10:12:14.826Z,16.41
2019-06-08T10:13:14.813Z,16.43
2019-06-08T10:14:14.820Z,16.46
2019-06-08T10:15:14.794Z,16.48
2019-06-08T10:16:14.782Z,16.56
2019-06-08T10:17:14.781Z,16.58
2019-06-08T10:18:14.769Z,16.61
2019-06-08T10:19:14.757Z,16.63
2019-06-08T10:20:14.743Z,16.67
2019-06-08T10:21:14.739Z,16.71
2019-06-08T10:22:14.713Z,16.88
2019-06-08T10:23:29.889Z,16.97
2019-06-08T10:24:14.701Z,17.06
2019-06-08T10:25:14.687Z,17.16
2019-06-08T10:26:14.681Z,17.37
2019-06-08T10:27:14.694Z,17.52
2019-06-08T10:28:18.524Z,17.68
2019-06-08T10:29:14.642Z,17.77
2019-06-08T10:30:14.632Z,17.93
2019-06-08T10:31:14.637Z,18.07
2019-06-08T10:32:14.622Z,18.25
2019-06-08T10:33:14.599Z,18.42
2019-06-08T10:34:14.593Z,18.50
2019-06-08T10:35:14.586Z,18.58
2019-06-08T10:36:14.579Z,18.72
2019-06-08T10:37:14.562Z,18.55
2019-06-08T10:38:14.549Z,18.35
2019-06-08T10:39:14.567Z,18.36
2019-06-08T10:40:14.536Z,18.29
2019-06-08T10:41:18.987Z,18.27
2019-06-08T10:42:14.516Z,18.41
2019-06-08T10:43:14.505Z,18.30
2019-06-08T10:44:14.664Z,18.33
2019-06-08T10:45:15.145Z,18.11
2019-06-08T10:46:17.383Z,18.00
2019-06-08T10:47:14.463Z,17.93
2019-06-08T10:48:14.457Z,17.89
2019-06-08T10:49:15.129Z,17.95
2019-06-08T10:50:15.544Z,18.07
2019-06-08T10:51:14.426Z,18.07
2019-06-08T10:52:14.419Z,17.84
2019-06-08T10:53:16.519Z,17.86
2019-06-08T10:54:14.402Z,17.95
2019-06-08T10:55:14.388Z,18.10
2019-06-08T10:56:14.426Z,18.14
2019-06-08T10:57:14.366Z,18.20
2019-06-08T10:58:14.360Z,18.20
2019-06-08T10:59:14.564Z,18.27
2019-06-08T11:00:22.740Z,18.36
2019-06-08T11:01:14.333Z,18.45
2019-06-08T11:02:14.817Z,18.63
2019-06-08T11:03:14.320Z,18.69
2019-06-08T11:04:14.303Z,18.69
2019-06-08T11:05:14.454Z,18.72
2019-06-08T11:06:14.297Z,18.70
2019-06-08T11:07:16.340Z,18.66
2019-06-08T11:08:14.869Z,18.69
2019-06-08T11:09:15.329Z,18.72
2019-06-08T11:10:14.243Z,18.80
2019-06-08T11:11:14.240Z,18.73
2019-06-08T11:12:15.375Z,18.78
2019-06-08T11:13:15.116Z,18.80
2019-06-08T11:14:14.209Z,18.80
2019-06-08T11:15:14.198Z,18.81
2019-06-08T11:16:14.202Z,18.82
2019-06-08T11:17:14.251Z,18.90
2019-06-08T11:18:14.170Z,18.92
2019-06-08T11:19:14.347Z,18.95
2019-06-08T11:20:14.157Z,19.02
2019-06-08T11:21:14.164Z,19.02
2019-06-08T11:22:15.196Z,18.84
2019-06-08T11:23:14.129Z,18.88
2019-06-08T11:24:23.799Z,18.80
2019-06-08T11:25:16.570Z,18.81
2019-06-08T11:26:21.017Z,18.75
2019-06-08T11:27:14.098Z,18.69
2019-06-08T11:28:15.230Z,18.55
2019-06-08T11:29:14.238Z,18.50
2019-06-08T11:30:20.422Z,18.52
2019-06-08T11:31:16.153Z,18.58
2019-06-08T11:32:14.044Z,18.54
2019-06-08T11:33:14.034Z,18.55
2019-06-08T11:34:14.024Z,18.65
2019-06-08T11:35:14.017Z,18.60
2019-06-08T11:36:14.987Z,18.55
2019-06-08T11:37:17.885Z,18.57
2019-06-08T11:38:13.991Z,18.69
2019-06-08T11:39:13.985Z,18.69
2019-06-08T11:40:13.970Z,18.82
2019-06-08T11:41:14.067Z,18.95
2019-06-08T11:42:13.950Z,18.95
2019-06-08T11:43:13.948Z,18.99
2019-06-08T11:44:14.956Z,19.02
2019-06-08T11:45:13.926Z,19.02
2019-06-08T11:46:13.916Z,19.02
2019-06-08T11:47:13.905Z,19.04
2019-06-08T11:48:13.909Z,19.16
2019-06-08T11:49:15.171Z,19.25
2019-06-08T11:50:13.877Z,19.36
2019-06-08T11:51:13.869Z,19.50
2019-06-08T11:52:13.861Z,19.46
2019-06-08T11:53:14.914Z,19.54
2019-06-08T11:54:29.530Z,19.50
2019-06-08T11:55:13.831Z,19.48
2019-06-08T11:56:13.823Z,19.40
2019-06-08T11:57:13.812Z,19.43
2019-06-08T11:58:13.929Z,19.48
2019-06-08T11:59:14.464Z,19.36
2019-06-08T12:00:24.279Z,19.40
2019-06-08T12:01:15.449Z,19.40
2019-06-08T12:02:14.339Z,19.44
2019-06-08T12:03:13.763Z,19.37
2019-06-08T12:04:13.754Z,19.43
2019-06-08T12:05:14.287Z,19.55
2019-06-08T12:06:14.543Z,19.48
2019-06-08T12:07:14.048Z,19.58
2019-06-08T12:08:13.720Z,19.59
2019-06-08T12:09:14.117Z,19.77
2019-06-08T12:10:14.158Z,19.71
2019-06-08T12:11:18.829Z,19.71
2019-06-08T12:12:17.506Z,19.76
2019-06-08T12:13:14.379Z,19.74
2019-06-08T12:14:14.354Z,19.69
2019-06-08T12:15:15.007Z,19.76
2019-06-08T12:16:15.871Z,19.87
2019-06-08T12:17:18.838Z,19.88
2019-06-08T12:18:14.165Z,19.84
2019-06-08T12:19:16.722Z,19.80
2019-06-08T12:20:17.406Z,19.77
2019-06-08T12:21:14.612Z,19.77
2019-06-08T12:22:14.575Z,19.77
2019-06-08T12:23:14.163Z,19.73
2019-06-08T12:24:14.407Z,19.77
2019-06-08T12:25:14.193Z,19.95
2019-06-08T12:26:14.559Z,19.95
2019-06-08T12:27:23.785Z,20.02
2019-06-08T12:28:14.680Z,20.02
2019-06-08T12:29:15.826Z,20.16
2019-06-08T12:30:20.548Z,20.18
2019-06-08T12:31:17.632Z,20.24
2019-06-08T12:32:14.326Z,20.38
2019-06-08T12:33:13.886Z,20.36
2019-06-08T12:34:13.536Z,20.43
2019-06-08T12:35:13.901Z,20.47
2019-06-08T12:36:15.584Z,20.43
2019-06-08T12:37:17.862Z,20.32
2019-06-08T12:38:14.251Z,20.39
2019-06-08T12:39:14.296Z,20.35
2019-06-08T12:40:14.868Z,20.47
2019-06-08T12:41:14.043Z,20.39
2019-06-08T12:42:19.588Z,20.43
2019-06-08T12:43:14.617Z,20.32
2019-06-08T12:44:15.202Z,20.36
2019-06-08T12:45:13.456Z,20.36
2019-06-08T12:46:14.702Z,20.39
2019-06-08T12:47:17.598Z,20.33
2019-06-08T12:48:16.216Z,20.35
2019-06-08T12:49:14.366Z,20.28
2019-06-08T12:50:14.714Z,20.02
2019-06-08T12:51:14.734Z,20.02
2019-06-08T12:52:14.512Z,20.08